sensor_id;sensor_type;location;lat;lon;timestamp;P1;P2;P0
61804;PMS7003;47725;47.912;7.356;2023-06-22T00:01:12;1.92;0.96;
61804;PMS7003;47725;47.912;7.356;2023-06-22T00:05:12;1.92;0.96;
61804;PMS7003;47725;47.912;7.356;2023-06-22T00:09:12;1.92;0.96;
61804;PMS7003;47725;47.912;7.356;2023-06-22T00:13:12;1.92;1.92;
61804;PMS7003;47725;47.912;7.356;2023-06-22T00:17:12;1.92;1.92;
61804;PMS7003;47725;47.912;7.356;2023-06-22T00:21:12;2.85;0.95;
61804;PMS7003;47725;47.912;7.356;2023-06-22T00:25:12;2.85;0.95;
61804;PMS7003;47725;47.912;7.356;2023-06-22T00:29:12;2.85;0.95;
61804;PMS7003;47725;47.912;7.356;2023-06-22T00:33:12;4.77;1.91;
61804;PMS7003;47725;47.912;7.356;2023-06-22T00:37:12;4.77;1.91;
61804;PMS7003;47725;47.912;7.356;2023-06-22T00:41:12;2.86;1.90;
61804;PMS7003;47725;47.912;7.356;2023-06-22T00:45:12;2.86;1.90;
61804;PMS7003;47725;47.912;7.356;2023-06-22T00:49:12;2.86;1.90;
61804;PMS7003;47725;47.912;7.356;2023-06-22T00:53:12;0.95;0.95;
61804;PMS7003;47725;47.912;7.356;2023-06-22T00:57:12;0.95;0.95;
61804;PMS7003;47725;47.912;7.356;2023-06-22T01:01:12;0.95;0.95;
61804;PMS7003;47725;47.912;7.356;2023-06-22T01:05:14;0.95;0.95;
61804;PMS7003;47725;47.912;7.356;2023-06-22T01:09:13;0.95;0.95;
61804;PMS7003;47725;47.912;7.356;2023-06-22T01:13:25;0.95;0.95;
61804;PMS7003;47725;47.912;7.356;2023-06-22T01:17:12;0.95;0.95;
61804;PMS7003;47725;47.912;7.356;2023-06-22T01:21:12;0.00;0.00;
61804;PMS7003;47725;47.912;7.356;2023-06-22T01:25:13;0.00;0.00;
61804;PMS7003;47725;47.912;7.356;2023-06-22T01:29:12;0.00;0.00;
61804;PMS7003;47725;47.912;7.356;2023-06-22T01:33:12;3.77;1.89;
61804;PMS7003;47725;47.912;7.356;2023-06-22T01:37:12;3.77;1.89;
61804;PMS7003;47725;47.912;7.356;2023-06-22T01:41:12;0.95;0.95;
61804;PMS7003;47725;47.912;7.356;2023-06-22T01:45:11;0.95;0.95;
61804;PMS7003;47725;47.912;7.356;2023-06-22T01:49:11;0.95;0.95;
61804;PMS7003;47725;47.912;7.356;2023-06-22T01:53:11;4.74;1.90;
61804;PMS7003;47725;47.912;7.356;2023-06-22T01:57:12;4.74;1.90;
61804;PMS7003;47725;47.912;7.356;2023-06-22T02:01:12;4.73;2.84;
61804;PMS7003;47725;47.912;7.356;2023-06-22T02:05:12;4.73;2.84;
61804;PMS7003;47725;47.912;7.356;2023-06-22T02:09:12;4.73;2.84;
61804;PMS7003;47725;47.912;7.356;2023-06-22T02:13:11;2.84;0.95;
61804;PMS7003;47725;47.912;7.356;2023-06-22T02:17:11;2.84;0.95;
61804;PMS7003;47725;47.912;7.356;2023-06-22T02:21:11;2.84;1.89;
61804;PMS7003;47725;47.912;7.356;2023-06-22T02:25:11;2.84;1.89;
61804;PMS7003;47725;47.912;7.356;2023-06-22T02:29:11;2.84;1.89;
61804;PMS7003;47725;47.912;7.356;2023-06-22T02:33:12;1.89;1.89;
61804;PMS7003;47725;47.912;7.356;2023-06-22T02:37:11;1.89;1.89;
61804;PMS7003;47725;47.912;7.356;2023-06-22T02:41:11;4.72;1.89;
61804;PMS7003;47725;47.912;7.356;2023-06-22T02:45:11;4.72;1.89;
61804;PMS7003;47725;47.912;7.356;2023-06-22T02:49:11;4.72;1.89;
61804;PMS7003;47725;47.912;7.356;2023-06-22T02:53:11;2.83;2.83;
61804;PMS7003;47725;47.912;7.356;2023-06-22T02:57:11;2.83;2.83;
61804;PMS7003;47725;47.912;7.356;2023-06-22T03:01:11;3.77;3.77;
61804;PMS7003;47725;47.912;7.356;2023-06-22T03:05:12;3.77;3.77;
61804;PMS7003;47725;47.912;7.356;2023-06-22T03:09:11;3.77;3.77;
61804;PMS7003;47725;47.912;7.356;2023-06-22T03:13:11;3.77;3.77;
61804;PMS7003;47725;47.912;7.356;2023-06-22T03:17:11;3.77;3.77;
61804;PMS7003;47725;47.912;7.356;2023-06-22T03:21:11;3.76;1.88;
61804;PMS7003;47725;47.912;7.356;2023-06-22T03:25:11;3.76;1.88;
61804;PMS7003;47725;47.912;7.356;2023-06-22T03:29:12;3.76;1.88;
61804;PMS7003;47725;47.912;7.356;2023-06-22T03:33:11;2.82;1.88;
61804;PMS7003;47725;47.912;7.356;2023-06-22T03:37:11;2.82;1.88;
61804;PMS7003;47725;47.912;7.356;2023-06-22T03:41:11;1.88;1.88;
61804;PMS7003;47725;47.912;7.356;2023-06-22T03:45:11;1.88;1.88;
61804;PMS7003;47725;47.912;7.356;2023-06-22T03:49:11;1.88;1.88;
61804;PMS7003;47725;47.912;7.356;2023-06-22T03:53:11;1.88;0.94;
61804;PMS7003;47725;47.912;7.356;2023-06-22T03:57:11;1.88;0.94;
61804;PMS7003;47725;47.912;7.356;2023-06-22T04:01:11;1.88;1.88;
61804;PMS7003;47725;47.912;7.356;2023-06-22T04:05:11;1.88;1.88;
61804;PMS7003;47725;47.912;7.356;2023-06-22T04:09:11;1.88;1.88;
61804;PMS7003;47725;47.912;7.356;2023-06-22T04:13:11;2.82;2.82;
61804;PMS7003;47725;47.912;7.356;2023-06-22T04:17:11;2.82;2.82;
61804;PMS7003;47725;47.912;7.356;2023-06-22T04:21:12;1.88;0.94;
61804;PMS7003;47725;47.912;7.356;2023-06-22T04:25:11;1.88;0.94;
61804;PMS7003;47725;47.912;7.356;2023-06-22T04:29:11;1.88;0.94;
61804;PMS7003;47725;47.912;7.356;2023-06-22T04:33:15;2.82;0.94;
61804;PMS7003;47725;47.912;7.356;2023-06-22T04:37:11;2.82;0.94;
61804;PMS7003;47725;47.912;7.356;2023-06-22T04:41:11;2.82;0.00;
61804;PMS7003;47725;47.912;7.356;2023-06-22T04:45:11;2.82;0.00;
61804;PMS7003;47725;47.912;7.356;2023-06-22T04:49:11;2.82;0.00;
61804;PMS7003;47725;47.912;7.356;2023-06-22T04:53:11;0.94;0.94;
61804;PMS7003;47725;47.912;7.356;2023-06-22T04:57:11;0.94;0.94;
61804;PMS7003;47725;47.912;7.356;2023-06-22T05:01:11;4.68;2.81;
61804;PMS7003;47725;47.912;7.356;2023-06-22T05:05:12;4.68;2.81;
61804;PMS7003;47725;47.912;7.356;2023-06-22T05:09:11;4.68;2.81;
61804;PMS7003;47725;47.912;7.356;2023-06-22T05:13:11;1.87;0.94;
61804;PMS7003;47725;47.912;7.356;2023-06-22T05:17:22;1.87;0.94;
61804;PMS7003;47725;47.912;7.356;2023-06-22T05:21:11;1.87;1.87;
61804;PMS7003;47725;47.912;7.356;2023-06-22T05:25:11;1.87;1.87;
61804;PMS7003;47725;47.912;7.356;2023-06-22T05:29:11;1.87;1.87;
61804;PMS7003;47725;47.912;7.356;2023-06-22T05:33:11;3.73;1.86;
61804;PMS7003;47725;47.912;7.356;2023-06-22T05:37:11;3.73;1.86;
61804;PMS7003;47725;47.912;7.356;2023-06-22T05:41:11;4.65;2.79;
61804;PMS7003;47725;47.912;7.356;2023-06-22T05:45:11;4.65;2.79;
61804;PMS7003;47725;47.912;7.356;2023-06-22T05:49:12;4.65;2.79;
61804;PMS7003;47725;47.912;7.356;2023-06-22T05:53:11;1.86;1.86;
61804;PMS7003;47725;47.912;7.356;2023-06-22T05:57:11;1.86;1.86;
61804;PMS7003;47725;47.912;7.356;2023-06-22T06:01:11;2.78;1.86;
61804;PMS7003;47725;47.912;7.356;2023-06-22T06:05:11;2.78;1.86;
61804;PMS7003;47725;47.912;7.356;2023-06-22T06:09:11;2.78;1.86;
61804;PMS7003;47725;47.912;7.356;2023-06-22T06:13:11;2.79;0.93;
61804;PMS7003;47725;47.912;7.356;2023-06-22T06:17:11;2.79;0.93;
61804;PMS7003;47725;47.912;7.356;2023-06-22T06:21:11;1.86;1.86;
61804;PMS7003;47725;47.912;7.356;2023-06-22T06:25:11;1.86;1.86;
61804;PMS7003;47725;47.912;7.356;2023-06-22T06:29:11;1.86;1.86;
61804;PMS7003;47725;47.912;7.356;2023-06-22T06:33:11;2.80;0.93;
61804;PMS7003;47725;47.912;7.356;2023-06-22T06:37:11;2.80;0.93;
61804;PMS7003;47725;47.912;7.356;2023-06-22T06:41:11;1.87;1.87;
61804;PMS7003;47725;47.912;7.356;2023-06-22T06:45:11;1.87;1.87;
61804;PMS7003;47725;47.912;7.356;2023-06-22T06:49:11;1.87;1.87;
61804;PMS7003;47725;47.912;7.356;2023-06-22T06:53:11;1.88;0.94;
61804;PMS7003;47725;47.912;7.356;2023-06-22T06:57:11;1.88;0.94;
61804;PMS7003;47725;47.912;7.356;2023-06-22T07:01:14;1.89;1.89;
61804;PMS7003;47725;47.912;7.356;2023-06-22T07:05:11;1.89;1.89;
61804;PMS7003;47725;47.912;7.356;2023-06-22T07:09:12;1.89;1.89;
61804;PMS7003;47725;47.912;7.356;2023-06-22T07:13:11;4.71;2.83;
61804;PMS7003;47725;47.912;7.356;2023-06-22T07:17:11;4.71;2.83;
61804;PMS7003;47725;47.912;7.356;2023-06-22T07:21:11;6.60;5.65;
61804;PMS7003;47725;47.912;7.356;2023-06-22T07:25:11;6.60;5.65;
61804;PMS7003;47725;47.912;7.356;2023-06-22T07:29:11;6.60;5.65;
61804;PMS7003;47725;47.912;7.356;2023-06-22T07:33:11;2.82;2.82;
61804;PMS7003;47725;47.912;7.356;2023-06-22T07:37:11;2.82;2.82;
61804;PMS7003;47725;47.912;7.356;2023-06-22T07:41:11;4.73;4.73;
61804;PMS7003;47725;47.912;7.356;2023-06-22T07:45:11;4.73;4.73;
61804;PMS7003;47725;47.912;7.356;2023-06-22T07:49:11;4.73;4.73;
61804;PMS7003;47725;47.912;7.356;2023-06-22T07:53:11;5.70;4.75;
61804;PMS7003;47725;47.912;7.356;2023-06-22T07:57:11;5.70;4.75;
61804;PMS7003;47725;47.912;7.356;2023-06-22T08:01:11;2.86;0.95;
61804;PMS7003;47725;47.912;7.356;2023-06-22T08:05:11;2.86;0.95;
61804;PMS7003;47725;47.912;7.356;2023-06-22T08:09:11;2.86;0.95;
61804;PMS7003;47725;47.912;7.356;2023-06-22T08:13:11;2.87;2.87;
61804;PMS7003;47725;47.912;7.356;2023-06-22T08:17:11;2.87;2.87;
61804;PMS7003;47725;47.912;7.356;2023-06-22T08:21:11;3.83;3.83;
61804;PMS7003;47725;47.912;7.356;2023-06-22T08:25:11;3.83;3.83;
61804;PMS7003;47725;47.912;7.356;2023-06-22T08:29:11;3.83;3.83;
61804;PMS7003;47725;47.912;7.356;2023-06-22T08:33:11;4.79;3.84;
61804;PMS7003;47725;47.912;7.356;2023-06-22T08:37:11;4.79;3.84;
61804;PMS7003;47725;47.912;7.356;2023-06-22T08:41:11;3.84;3.84;
61804;PMS7003;47725;47.912;7.356;2023-06-22T08:45:11;3.84;3.84;
61804;PMS7003;47725;47.912;7.356;2023-06-22T08:49:11;3.84;3.84;
61804;PMS7003;47725;47.912;7.356;2023-06-22T08:53:11;4.82;1.93;
61804;PMS7003;47725;47.912;7.356;2023-06-22T08:57:11;4.82;1.93;
61804;PMS7003;47725;47.912;7.356;2023-06-22T09:01:11;2.91;1.94;
61804;PMS7003;47725;47.912;7.356;2023-06-22T09:05:11;2.91;1.94;
61804;PMS7003;47725;47.912;7.356;2023-06-22T09:09:12;2.91;1.94;
61804;PMS7003;47725;47.912;7.356;2023-06-22T09:13:11;6.82;1.95;
61804;PMS7003;47725;47.912;7.356;2023-06-22T09:17:12;6.82;1.95;
61804;PMS7003;47725;47.912;7.356;2023-06-22T09:21:11;3.92;1.96;
61804;PMS7003;47725;47.912;7.356;2023-06-22T09:25:11;3.92;1.96;
61804;PMS7003;47725;47.912;7.356;2023-06-22T09:29:11;3.92;1.96;
61804;PMS7003;47725;47.912;7.356;2023-06-22T09:33:11;4.90;2.94;
61804;PMS7003;47725;47.912;7.356;2023-06-22T09:37:11;4.90;2.94;
61804;PMS7003;47725;47.912;7.356;2023-06-22T09:41:11;1.96;1.96;
61804;PMS7003;47725;47.912;7.356;2023-06-22T09:45:11;1.96;1.96;
61804;PMS7003;47725;47.912;7.356;2023-06-22T09:49:11;1.96;1.96;
61804;PMS7003;47725;47.912;7.356;2023-06-22T09:53:11;3.92;1.96;
61804;PMS7003;47725;47.912;7.356;2023-06-22T09:57:11;3.92;1.96;
61804;PMS7003;47725;47.912;7.356;2023-06-22T10:01:11;5.91;2.96;
61804;PMS7003;47725;47.912;7.356;2023-06-22T10:05:11;5.91;2.96;
61804;PMS7003;47725;47.912;7.356;2023-06-22T10:09:11;5.91;2.96;
61804;PMS7003;47725;47.912;7.356;2023-06-22T10:13:11;5.92;4.93;
61804;PMS7003;47725;47.912;7.356;2023-06-22T10:17:11;5.92;4.93;
61804;PMS7003;47725;47.912;7.356;2023-06-22T10:21:11;1.98;1.98;
61804;PMS7003;47725;47.912;7.356;2023-06-22T10:25:12;1.98;1.98;
61804;PMS7003;47725;47.912;7.356;2023-06-22T10:29:11;1.98;1.98;
61804;PMS7003;47725;47.912;7.356;2023-06-22T10:33:11;4.96;1.99;
61804;PMS7003;47725;47.912;7.356;2023-06-22T10:37:11;4.96;1.99;
61804;PMS7003;47725;47.912;7.356;2023-06-22T10:41:11;2.97;2.97;
61804;PMS7003;47725;47.912;7.356;2023-06-22T10:45:11;2.97;2.97;
61804;PMS7003;47725;47.912;7.356;2023-06-22T10:49:11;2.97;2.97;
61804;PMS7003;47725;47.912;7.356;2023-06-22T10:53:11;2.97;2.97;
61804;PMS7003;47725;47.912;7.356;2023-06-22T10:57:11;2.97;2.97;
61804;PMS7003;47725;47.912;7.356;2023-06-22T11:01:11;0.99;0.99;
61804;PMS7003;47725;47.912;7.356;2023-06-22T11:05:11;0.99;0.99;
61804;PMS7003;47725;47.912;7.356;2023-06-22T11:09:11;0.99;0.99;
61804;PMS7003;47725;47.912;7.356;2023-06-22T11:13:11;1.98;1.98;
61804;PMS7003;47725;47.912;7.356;2023-06-22T11:17:11;1.98;1.98;
61804;PMS7003;47725;47.912;7.356;2023-06-22T11:21:11;1.98;1.98;
61804;PMS7003;47725;47.912;7.356;2023-06-22T11:25:11;1.98;1.98;
61804;PMS7003;47725;47.912;7.356;2023-06-22T11:29:11;1.98;1.98;
61804;PMS7003;47725;47.912;7.356;2023-06-22T11:33:11;1.98;1.98;
61804;PMS7003;47725;47.912;7.356;2023-06-22T11:37:11;1.98;1.98;
61804;PMS7003;47725;47.912;7.356;2023-06-22T11:41:11;3.97;2.97;
61804;PMS7003;47725;47.912;7.356;2023-06-22T11:45:11;3.97;2.97;
61804;PMS7003;47725;47.912;7.356;2023-06-22T11:49:11;3.97;2.97;
61804;PMS7003;47725;47.912;7.356;2023-06-22T11:53:11;0.99;0.99;
61804;PMS7003;47725;47.912;7.356;2023-06-22T11:57:11;0.99;0.99;
61804;PMS7003;47725;47.912;7.356;2023-06-22T12:01:11;3.96;0.99;
61804;PMS7003;47725;47.912;7.356;2023-06-22T12:05:11;3.96;0.99;
61804;PMS7003;47725;47.912;7.356;2023-06-22T12:09:11;3.96;0.99;
61804;PMS7003;47725;47.912;7.356;2023-06-22T12:13:11;4.96;3.97;
61804;PMS7003;47725;47.912;7.356;2023-06-22T12:17:11;4.96;3.97;
61804;PMS7003;47725;47.912;7.356;2023-06-22T12:21:11;2.97;0.99;
61804;PMS7003;47725;47.912;7.356;2023-06-22T12:25:11;2.97;0.99;
61804;PMS7003;47725;47.912;7.356;2023-06-22T12:29:11;2.97;0.99;
61804;PMS7003;47725;47.912;7.356;2023-06-22T12:33:11;2.98;0.00;
61804;PMS7003;47725;47.912;7.356;2023-06-22T12:37:11;2.98;0.00;
61804;PMS7003;47725;47.912;7.356;2023-06-22T12:41:11;1.99;1.99;
61804;PMS7003;47725;47.912;7.356;2023-06-22T12:45:11;1.99;1.99;
61804;PMS7003;47725;47.912;7.356;2023-06-22T12:49:11;1.99;1.99;
61804;PMS7003;47725;47.912;7.356;2023-06-22T12:53:11;1.99;1.99;
61804;PMS7003;47725;47.912;7.356;2023-06-22T12:57:11;1.99;1.99;
61804;PMS7003;47725;47.912;7.356;2023-06-22T13:01:11;1.00;1.00;
61804;PMS7003;47725;47.912;7.356;2023-06-22T13:05:11;1.00;1.00;
61804;PMS7003;47725;47.912;7.356;2023-06-22T13:09:11;1.00;1.00;
61804;PMS7003;47725;47.912;7.356;2023-06-22T13:13:11;1.00;0.00;
61804;PMS7003;47725;47.912;7.356;2023-06-22T13:17:11;1.00;0.00;
61804;PMS7003;47725;47.912;7.356;2023-06-22T13:21:11;1.00;1.00;
61804;PMS7003;47725;47.912;7.356;2023-06-22T13:25:11;1.00;1.00;
61804;PMS7003;47725;47.912;7.356;2023-06-22T13:29:11;1.00;1.00;
61804;PMS7003;47725;47.912;7.356;2023-06-22T13:33:11;1.00;1.00;
61804;PMS7003;47725;47.912;7.356;2023-06-22T13:37:11;1.00;1.00;
61804;PMS7003;47725;47.912;7.356;2023-06-22T13:41:11;2.00;0.00;
61804;PMS7003;47725;47.912;7.356;2023-06-22T13:45:11;2.00;0.00;
61804;PMS7003;47725;47.912;7.356;2023-06-22T13:49:11;2.00;0.00;
61804;PMS7003;47725;47.912;7.356;2023-06-22T13:53:11;3.99;1.00;
61804;PMS7003;47725;47.912;7.356;2023-06-22T13:57:11;3.99;1.00;
61804;PMS7003;47725;47.912;7.356;2023-06-22T14:01:11;2.99;0.00;
61804;PMS7003;47725;47.912;7.356;2023-06-22T14:05:11;2.99;0.00;
61804;PMS7003;47725;47.912;7.356;2023-06-22T14:09:11;2.99;0.00;
61804;PMS7003;47725;47.912;7.356;2023-06-22T14:13:11;0.00;0.00;
61804;PMS7003;47725;47.912;7.356;2023-06-22T14:17:11;0.00;0.00;
61804;PMS7003;47725;47.912;7.356;2023-06-22T14:21:11;2.00;2.00;
61804;PMS7003;47725;47.912;7.356;2023-06-22T14:25:11;2.00;2.00;
61804;PMS7003;47725;47.912;7.356;2023-06-22T14:29:11;2.00;2.00;
61804;PMS7003;47725;47.912;7.356;2023-06-22T14:33:11;1.00;1.00;
61804;PMS7003;47725;47.912;7.356;2023-06-22T14:37:11;1.00;1.00;
61804;PMS7003;47725;47.912;7.356;2023-06-22T14:41:11;3.00;2.00;
61804;PMS7003;47725;47.912;7.356;2023-06-22T14:45:12;3.00;2.00;
61804;PMS7003;47725;47.912;7.356;2023-06-22T14:49:11;3.00;2.00;
61804;PMS7003;47725;47.912;7.356;2023-06-22T14:53:11;4.99;2.00;
61804;PMS7003;47725;47.912;7.356;2023-06-22T14:57:11;4.99;2.00;
61804;PMS7003;47725;47.912;7.356;2023-06-22T15:01:11;0.00;0.00;
61804;PMS7003;47725;47.912;7.356;2023-06-22T15:05:11;0.00;0.00;
61804;PMS7003;47725;47.912;7.356;2023-06-22T15:09:11;0.00;0.00;
61804;PMS7003;47725;47.912;7.356;2023-06-22T15:13:11;1.00;1.00;
61804;PMS7003;47725;47.912;7.356;2023-06-22T15:17:11;1.00;1.00;
61804;PMS7003;47725;47.912;7.356;2023-06-22T15:21:11;0.00;0.00;
61804;PMS7003;47725;47.912;7.356;2023-06-22T15:25:11;0.00;0.00;
61804;PMS7003;47725;47.912;7.356;2023-06-22T15:29:11;0.00;0.00;
61804;PMS7003;47725;47.912;7.356;2023-06-22T15:33:11;0.00;0.00;
61804;PMS7003;47725;47.912;7.356;2023-06-22T15:37:11;0.00;0.00;
61804;PMS7003;47725;47.912;7.356;2023-06-22T15:41:11;1.00;1.00;
61804;PMS7003;47725;47.912;7.356;2023-06-22T15:45:11;1.00;1.00;
61804;PMS7003;47725;47.912;7.356;2023-06-22T15:49:11;1.00;1.00;
61804;PMS7003;47725;47.912;7.356;2023-06-22T15:53:11;2.00;1.00;
61804;PMS7003;47725;47.912;7.356;2023-06-22T15:57:11;2.00;1.00;
61804;PMS7003;47725;47.912;7.356;2023-06-22T16:01:11;0.00;0.00;
61804;PMS7003;47725;47.912;7.356;2023-06-22T16:05:11;0.00;0.00;
61804;PMS7003;47725;47.912;7.356;2023-06-22T16:09:11;0.00;0.00;
61804;PMS7003;47725;47.912;7.356;2023-06-22T16:13:11;0.00;0.00;
61804;PMS7003;47725;47.912;7.356;2023-06-22T16:17:11;0.00;0.00;
61804;PMS7003;47725;47.912;7.356;2023-06-22T16:21:11;0.00;0.00;
61804;PMS7003;47725;47.912;7.356;2023-06-22T16:25:11;0.00;0.00;
61804;PMS7003;47725;47.912;7.356;2023-06-22T16:29:11;0.00;0.00;
61804;PMS7003;47725;47.912;7.356;2023-06-22T16:33:11;0.00;0.00;
61804;PMS7003;47725;47.912;7.356;2023-06-22T16:37:11;0.00;0.00;
61804;PMS7003;47725;47.912;7.356;2023-06-22T16:41:11;2.99;0.00;
61804;PMS7003;47725;47.912;7.356;2023-06-22T16:45:12;2.99;0.00;
61804;PMS7003;47725;47.912;7.356;2023-06-22T16:49:11;2.99;0.00;
61804;PMS7003;47725;47.912;7.356;2023-06-22T16:53:11;0.00;0.00;
61804;PMS7003;47725;47.912;7.356;2023-06-22T16:57:11;0.00;0.00;
61804;PMS7003;47725;47.912;7.356;2023-06-22T17:01:11;0.00;0.00;
61804;PMS7003;47725;47.912;7.356;2023-06-22T17:05:11;0.00;0.00;
61804;PMS7003;47725;47.912;7.356;2023-06-22T17:09:11;0.00;0.00;
61804;PMS7003;47725;47.912;7.356;2023-06-22T17:13:11;0.00;0.00;
61804;PMS7003;47725;47.912;7.356;2023-06-22T17:17:11;0.00;0.00;
61804;PMS7003;47725;47.912;7.356;2023-06-22T17:21:11;0.00;0.00;
61804;PMS7003;47725;47.912;7.356;2023-06-22T17:25:11;0.00;0.00;
61804;PMS7003;47725;47.912;7.356;2023-06-22T17:29:11;0.00;0.00;
61804;PMS7003;47725;47.912;7.356;2023-06-22T17:33:14;0.00;0.00;
61804;PMS7003;47725;47.912;7.356;2023-06-22T17:37:11;0.00;0.00;
61804;PMS7003;47725;47.912;7.356;2023-06-22T17:41:11;0.00;0.00;
61804;PMS7003;47725;47.912;7.356;2023-06-22T17:45:14;0.00;0.00;
61804;PMS7003;47725;47.912;7.356;2023-06-22T17:49:11;0.00;0.00;
61804;PMS7003;47725;47.912;7.356;2023-06-22T17:53:11;2.00;0.00;
61804;PMS7003;47725;47.912;7.356;2023-06-22T17:57:14;2.00;0.00;
61804;PMS7003;47725;47.912;7.356;2023-06-22T18:01:12;0.00;0.00;
61804;PMS7003;47725;47.912;7.356;2023-06-22T18:05:11;0.00;0.00;
61804;PMS7003;47725;47.912;7.356;2023-06-22T18:09:12;0.00;0.00;
61804;PMS7003;47725;47.912;7.356;2023-06-22T18:13:11;0.00;0.00;
61804;PMS7003;47725;47.912;7.356;2023-06-22T18:17:11;0.00;0.00;
61804;PMS7003;47725;47.912;7.356;2023-06-22T18:21:11;0.00;0.00;
61804;PMS7003;47725;47.912;7.356;2023-06-22T18:25:11;0.00;0.00;
61804;PMS7003;47725;47.912;7.356;2023-06-22T18:29:11;0.00;0.00;
61804;PMS7003;47725;47.912;7.356;2023-06-22T18:33:11;1.99;0.00;
61804;PMS7003;47725;47.912;7.356;2023-06-22T18:37:13;1.99;0.00;
61804;PMS7003;47725;47.912;7.356;2023-06-22T18:41:23;0.00;0.00;
61804;PMS7003;47725;47.912;7.356;2023-06-22T18:45:23;0.00;0.00;
61804;PMS7003;47725;47.912;7.356;2023-06-22T18:49:13;0.00;0.00;
61804;PMS7003;47725;47.912;7.356;2023-06-22T18:53:14;0.00;0.00;
61804;PMS7003;47725;47.912;7.356;2023-06-22T18:57:17;0.00;0.00;
61804;PMS7003;47725;47.912;7.356;2023-06-22T19:01:17;0.00;0.00;
61804;PMS7003;47725;47.912;7.356;2023-06-22T19:09:14;0.00;0.00;
61804;PMS7003;47725;47.912;7.356;2023-06-22T19:17:11;0.98;0.00;
61804;PMS7003;47725;47.912;7.356;2023-06-22T19:21:12;0.00;0.00;
61804;PMS7003;47725;47.912;7.356;2023-06-22T19:25:20;0.00;0.00;
61804;PMS7003;47725;47.912;7.356;2023-06-22T19:29:14;0.00;0.00;
61804;PMS7003;47725;47.912;7.356;2023-06-22T19:33:11;0.00;0.00;
61804;PMS7003;47725;47.912;7.356;2023-06-22T19:37:16;0.00;0.00;
61804;PMS7003;47725;47.912;7.356;2023-06-22T19:41:11;0.95;0.95;
61804;PMS7003;47725;47.912;7.356;2023-06-22T19:45:14;0.95;0.95;
61804;PMS7003;47725;47.912;7.356;2023-06-22T19:49:11;0.95;0.95;
61804;PMS7003;47725;47.912;7.356;2023-06-22T19:53:11;0.00;0.00;
61804;PMS7003;47725;47.912;7.356;2023-06-22T19:57:11;0.00;0.00;
61804;PMS7003;47725;47.912;7.356;2023-06-22T20:01:11;0.00;0.00;
61804;PMS7003;47725;47.912;7.356;2023-06-22T20:05:11;0.00;0.00;
61804;PMS7003;47725;47.912;7.356;2023-06-22T20:09:12;0.00;0.00;
61804;PMS7003;47725;47.912;7.356;2023-06-22T20:13:15;0.00;0.00;
61804;PMS7003;47725;47.912;7.356;2023-06-22T20:17:14;0.00;0.00;
61804;PMS7003;47725;47.912;7.356;2023-06-22T20:21:11;0.00;0.00;
61804;PMS7003;47725;47.912;7.356;2023-06-22T20:25:10;0.00;0.00;
61804;PMS7003;47725;47.912;7.356;2023-06-22T20:29:26;0.00;0.00;
61804;PMS7003;47725;47.912;7.356;2023-06-22T20:33:17;0.00;0.00;
61804;PMS7003;47725;47.912;7.356;2023-06-22T20:37:11;0.00;0.00;
61804;PMS7003;47725;47.912;7.356;2023-06-22T20:41:10;0.00;0.00;
61804;PMS7003;47725;47.912;7.356;2023-06-22T20:45:11;0.00;0.00;
61804;PMS7003;47725;47.912;7.356;2023-06-22T20:49:11;0.00;0.00;
61804;PMS7003;47725;47.912;7.356;2023-06-22T20:53:10;0.00;0.00;
61804;PMS7003;47725;47.912;7.356;2023-06-22T20:57:10;0.00;0.00;
61804;PMS7003;47725;47.912;7.356;2023-06-22T21:01:10;0.00;0.00;
61804;PMS7003;47725;47.912;7.356;2023-06-22T21:05:10;0.00;0.00;
61804;PMS7003;47725;47.912;7.356;2023-06-22T21:09:10;0.00;0.00;
61804;PMS7003;47725;47.912;7.356;2023-06-22T21:13:10;0.00;0.00;
61804;PMS7003;47725;47.912;7.356;2023-06-22T21:17:10;0.00;0.00;
61804;PMS7003;47725;47.912;7.356;2023-06-22T21:21:10;0.00;0.00;
61804;PMS7003;47725;47.912;7.356;2023-06-22T21:25:11;0.00;0.00;
61804;PMS7003;47725;47.912;7.356;2023-06-22T21:29:11;0.00;0.00;
61804;PMS7003;47725;47.912;7.356;2023-06-22T21:33:10;0.00;0.00;
61804;PMS7003;47725;47.912;7.356;2023-06-22T21:37:10;0.00;0.00;
61804;PMS7003;47725;47.912;7.356;2023-06-22T21:41:10;0.00;0.00;
61804;PMS7003;47725;47.912;7.356;2023-06-22T21:45:10;0.00;0.00;
61804;PMS7003;47725;47.912;7.356;2023-06-22T21:49:10;0.00;0.00;
61804;PMS7003;47725;47.912;7.356;2023-06-22T21:53:10;0.00;0.00;
61804;PMS7003;47725;47.912;7.356;2023-06-22T21:57:10;0.00;0.00;
61804;PMS7003;47725;47.912;7.356;2023-06-22T22:01:10;0.00;0.00;
61804;PMS7003;47725;47.912;7.356;2023-06-22T22:05:10;0.00;0.00;
61804;PMS7003;47725;47.912;7.356;2023-06-22T22:09:10;0.00;0.00;
61804;PMS7003;47725;47.912;7.356;2023-06-22T22:13:11;0.00;0.00;
61804;PMS7003;47725;47.912;7.356;2023-06-22T22:17:10;0.00;0.00;
61804;PMS7003;47725;47.912;7.356;2023-06-22T22:21:10;0.00;0.00;
61804;PMS7003;47725;47.912;7.356;2023-06-22T22:25:10;0.00;0.00;
61804;PMS7003;47725;47.912;7.356;2023-06-22T22:29:10;0.00;0.00;
61804;PMS7003;47725;47.912;7.356;2023-06-22T22:33:10;0.00;0.00;
61804;PMS7003;47725;47.912;7.356;2023-06-22T22:37:10;0.00;0.00;
61804;PMS7003;47725;47.912;7.356;2023-06-22T22:41:10;0.00;0.00;
61804;PMS7003;47725;47.912;7.356;2023-06-22T22:45:10;0.00;0.00;
61804;PMS7003;47725;47.912;7.356;2023-06-22T22:49:10;0.00;0.00;
61804;PMS7003;47725;47.912;7.356;2023-06-22T22:53:10;0.00;0.00;
61804;PMS7003;47725;47.912;7.356;2023-06-22T22:57:10;0.00;0.00;
61804;PMS7003;47725;47.912;7.356;2023-06-22T23:01:10;0.00;0.00;
61804;PMS7003;47725;47.912;7.356;2023-06-22T23:05:11;0.00;0.00;
61804;PMS7003;47725;47.912;7.356;2023-06-22T23:09:10;0.00;0.00;
61804;PMS7003;47725;47.912;7.356;2023-06-22T23:13:10;0.00;0.00;
61804;PMS7003;47725;47.912;7.356;2023-06-22T23:17:10;0.00;0.00;
61804;PMS7003;47725;47.912;7.356;2023-06-22T23:21:10;0.00;0.00;
61804;PMS7003;47725;47.912;7.356;2023-06-22T23:25:10;0.00;0.00;
61804;PMS7003;47725;47.912;7.356;2023-06-22T23:29:10;0.00;0.00;
61804;PMS7003;47725;47.912;7.356;2023-06-22T23:33:10;0.00;0.00;
61804;PMS7003;47725;47.912;7.356;2023-06-22T23:37:10;0.00;0.00;
61804;PMS7003;47725;47.912;7.356;2023-06-22T23:41:10;0.00;0.00;
61804;PMS7003;47725;47.912;7.356;2023-06-22T23:45:10;0.00;0.00;
61804;PMS7003;47725;47.912;7.356;2023-06-22T23:49:10;0.00;0.00;
61804;PMS7003;47725;47.912;7.356;2023-06-22T23:53:10;0.00;0.00;
61804;PMS7003;47725;47.912;7.356;2023-06-22T23:57:10;0.00;0.00;
